sensor_id;sensor_type;location;lat;lon;timestamp;temperature;humidity
11005;DHT22;5555;59.622;16.556;2023-07-13T00:01:25;15.50;99.90
11005;DHT22;5555;59.622;16.556;2023-07-13T00:03:52;15.50;99.90
11005;DHT22;5555;59.622;16.556;2023-07-13T00:06:17;15.60;99.90
11005;DHT22;5555;59.622;16.556;2023-07-13T00:08:45;15.60;99.90
11005;DHT22;5555;59.622;16.556;2023-07-13T00:11:10;15.60;99.90
11005;DHT22;5555;59.622;16.556;2023-07-13T00:13:36;15.60;99.90
11005;DHT22;5555;59.622;16.556;2023-07-13T00:16:04;15.60;99.90
11005;DHT22;5555;59.622;16.556;2023-07-13T00:18:30;15.60;99.90
11005;DHT22;5555;59.622;16.556;2023-07-13T00:20:56;15.60;99.90
11005;DHT22;5555;59.622;16.556;2023-07-13T00:23:31;15.50;99.90
11005;DHT22;5555;59.622;16.556;2023-07-13T00:25:56;15.40;99.90
11005;DHT22;5555;59.622;16.556;2023-07-13T00:28:23;15.40;99.90
11005;DHT22;5555;59.622;16.556;2023-07-13T00:30:48;15.30;99.90
11005;DHT22;5555;59.622;16.556;2023-07-13T00:33:14;15.30;99.90
11005;DHT22;5555;59.622;16.556;2023-07-13T00:35:39;15.20;99.90
11005;DHT22;5555;59.622;16.556;2023-07-13T00:38:05;15.30;99.90
11005;DHT22;5555;59.622;16.556;2023-07-13T00:40:31;15.30;99.90
11005;DHT22;5555;59.622;16.556;2023-07-13T00:42:58;15.30;99.90
11005;DHT22;5555;59.622;16.556;2023-07-13T00:47:50;15.40;99.90
11005;DHT22;5555;59.622;16.556;2023-07-13T00:50:16;15.50;99.90
11005;DHT22;5555;59.622;16.556;2023-07-13T00:52:46;15.40;99.90
11005;DHT22;5555;59.622;16.556;2023-07-13T00:55:13;15.50;99.90
11005;DHT22;5555;59.622;16.556;2023-07-13T00:57:40;15.40;99.90
11005;DHT22;5555;59.622;16.556;2023-07-13T01:00:08;15.40;99.90
11005;DHT22;5555;59.622;16.556;2023-07-13T01:02:36;15.30;99.90
11005;DHT22;5555;59.622;16.556;2023-07-13T01:05:09;15.20;99.90
11005;DHT22;5555;59.622;16.556;2023-07-13T01:07:35;15.20;99.90
11005;DHT22;5555;59.622;16.556;2023-07-13T01:10:02;15.20;99.90
11005;DHT22;5555;59.622;16.556;2023-07-13T01:12:28;15.20;99.90
11005;DHT22;5555;59.622;16.556;2023-07-13T01:15:00;15.10;99.90
11005;DHT22;5555;59.622;16.556;2023-07-13T01:17:27;15.10;99.90
11005;DHT22;5555;59.622;16.556;2023-07-13T01:19:53;15.10;99.90
11005;DHT22;5555;59.622;16.556;2023-07-13T01:22:19;15.00;99.90
11005;DHT22;5555;59.622;16.556;2023-07-13T01:24:50;15.00;99.90
11005;DHT22;5555;59.622;16.556;2023-07-13T01:27:21;15.00;99.90
11005;DHT22;5555;59.622;16.556;2023-07-13T01:29:47;15.10;99.90
11005;DHT22;5555;59.622;16.556;2023-07-13T01:32:22;15.00;99.90
11005;DHT22;5555;59.622;16.556;2023-07-13T01:34:50;15.00;99.90
11005;DHT22;5555;59.622;16.556;2023-07-13T01:37:16;15.10;99.90
11005;DHT22;5555;59.622;16.556;2023-07-13T01:39:42;15.10;99.90
11005;DHT22;5555;59.622;16.556;2023-07-13T01:42:08;15.20;99.90
11005;DHT22;5555;59.622;16.556;2023-07-13T01:44:33;15.20;99.90
11005;DHT22;5555;59.622;16.556;2023-07-13T01:47:00;15.30;99.90
11005;DHT22;5555;59.622;16.556;2023-07-13T01:49:25;15.30;99.90
11005;DHT22;5555;59.622;16.556;2023-07-13T01:51:51;15.30;99.90
11005;DHT22;5555;59.622;16.556;2023-07-13T01:54:16;15.40;99.90
11005;DHT22;5555;59.622;16.556;2023-07-13T01:56:42;15.40;99.90
11005;DHT22;5555;59.622;16.556;2023-07-13T01:59:08;15.40;99.90
11005;DHT22;5555;59.622;16.556;2023-07-13T02:01:34;15.40;99.90
11005;DHT22;5555;59.622;16.556;2023-07-13T02:04:00;15.40;99.90
11005;DHT22;5555;59.622;16.556;2023-07-13T02:06:25;15.50;99.90
11005;DHT22;5555;59.622;16.556;2023-07-13T02:08:51;15.50;99.90
11005;DHT22;5555;59.622;16.556;2023-07-13T02:11:17;15.50;99.90
11005;DHT22;5555;59.622;16.556;2023-07-13T02:13:43;15.50;99.90
11005;DHT22;5555;59.622;16.556;2023-07-13T02:16:09;15.50;99.90
11005;DHT22;5555;59.622;16.556;2023-07-13T02:18:34;15.60;99.90
11005;DHT22;5555;59.622;16.556;2023-07-13T02:21:00;15.60;99.90
11005;DHT22;5555;59.622;16.556;2023-07-13T02:23:25;15.60;99.90
11005;DHT22;5555;59.622;16.556;2023-07-13T02:25:58;15.60;99.90
11005;DHT22;5555;59.622;16.556;2023-07-13T02:28:24;15.60;99.90
11005;DHT22;5555;59.622;16.556;2023-07-13T02:30:49;15.60;99.90
11005;DHT22;5555;59.622;16.556;2023-07-13T02:33:15;15.60;99.90
11005;DHT22;5555;59.622;16.556;2023-07-13T02:35:41;15.60;99.90
11005;DHT22;5555;59.622;16.556;2023-07-13T02:38:07;15.60;99.90
11005;DHT22;5555;59.622;16.556;2023-07-13T02:40:32;15.50;99.90
11005;DHT22;5555;59.622;16.556;2023-07-13T02:42:59;15.40;99.90
11005;DHT22;5555;59.622;16.556;2023-07-13T02:45:25;15.40;99.90
11005;DHT22;5555;59.622;16.556;2023-07-13T02:47:51;15.40;99.90
11005;DHT22;5555;59.622;16.556;2023-07-13T02:50:17;15.40;99.90
11005;DHT22;5555;59.622;16.556;2023-07-13T02:52:42;15.30;99.90
11005;DHT22;5555;59.622;16.556;2023-07-13T02:55:08;15.40;99.90
11005;DHT22;5555;59.622;16.556;2023-07-13T02:57:34;15.30;99.90
11005;DHT22;5555;59.622;16.556;2023-07-13T03:00:01;15.30;99.90
11005;DHT22;5555;59.622;16.556;2023-07-13T03:02:31;15.30;99.90
11005;DHT22;5555;59.622;16.556;2023-07-13T03:04:58;15.40;99.90
11005;DHT22;5555;59.622;16.556;2023-07-13T03:07:23;15.40;99.90
11005;DHT22;5555;59.622;16.556;2023-07-13T03:09:55;15.50;99.90
11005;DHT22;5555;59.622;16.556;2023-07-13T03:12:21;15.50;99.90
11005;DHT22;5555;59.622;16.556;2023-07-13T03:14:46;15.60;99.90
11005;DHT22;5555;59.622;16.556;2023-07-13T03:17:12;15.60;99.90
11005;DHT22;5555;59.622;16.556;2023-07-13T03:19:37;15.70;99.90
11005;DHT22;5555;59.622;16.556;2023-07-13T03:22:03;15.60;99.90
11005;DHT22;5555;59.622;16.556;2023-07-13T03:24:29;15.70;99.90
11005;DHT22;5555;59.622;16.556;2023-07-13T03:26:55;15.70;99.90
11005;DHT22;5555;59.622;16.556;2023-07-13T03:29:20;15.60;99.90
11005;DHT22;5555;59.622;16.556;2023-07-13T03:31:46;15.60;99.90
11005;DHT22;5555;59.622;16.556;2023-07-13T03:34:12;15.60;99.90
11005;DHT22;5555;59.622;16.556;2023-07-13T03:36:37;15.50;99.90
11005;DHT22;5555;59.622;16.556;2023-07-13T03:39:03;15.50;99.90
11005;DHT22;5555;59.622;16.556;2023-07-13T03:41:29;15.60;99.90
11005;DHT22;5555;59.622;16.556;2023-07-13T03:43:57;15.60;99.90
11005;DHT22;5555;59.622;16.556;2023-07-13T03:46:22;15.70;99.90
11005;DHT22;5555;59.622;16.556;2023-07-13T03:48:48;15.80;99.90
11005;DHT22;5555;59.622;16.556;2023-07-13T03:51:16;15.80;99.90
11005;DHT22;5555;59.622;16.556;2023-07-13T03:53:43;15.80;99.90
11005;DHT22;5555;59.622;16.556;2023-07-13T03:56:10;15.80;99.90
11005;DHT22;5555;59.622;16.556;2023-07-13T03:58:38;15.80;99.90
11005;DHT22;5555;59.622;16.556;2023-07-13T04:01:06;15.80;99.90
11005;DHT22;5555;59.622;16.556;2023-07-13T04:03:32;15.70;99.90
11005;DHT22;5555;59.622;16.556;2023-07-13T04:06:03;15.70;99.90
11005;DHT22;5555;59.622;16.556;2023-07-13T04:08:32;15.70;99.90
11005;DHT22;5555;59.622;16.556;2023-07-13T04:10:58;15.90;99.90
11005;DHT22;5555;59.622;16.556;2023-07-13T04:13:24;16.00;99.90
11005;DHT22;5555;59.622;16.556;2023-07-13T04:15:51;16.00;99.90
11005;DHT22;5555;59.622;16.556;2023-07-13T04:18:18;16.20;99.90
11005;DHT22;5555;59.622;16.556;2023-07-13T04:20:45;16.20;99.90
11005;DHT22;5555;59.622;16.556;2023-07-13T04:23:11;16.10;99.90
11005;DHT22;5555;59.622;16.556;2023-07-13T04:25:36;16.10;99.90
11005;DHT22;5555;59.622;16.556;2023-07-13T04:28:03;16.20;99.90
11005;DHT22;5555;59.622;16.556;2023-07-13T04:30:29;16.30;99.90
11005;DHT22;5555;59.622;16.556;2023-07-13T04:32:55;16.30;99.90
11005;DHT22;5555;59.622;16.556;2023-07-13T04:35:20;16.20;99.90
11005;DHT22;5555;59.622;16.556;2023-07-13T04:37:50;16.20;99.90
11005;DHT22;5555;59.622;16.556;2023-07-13T04:40:19;16.20;99.90
11005;DHT22;5555;59.622;16.556;2023-07-13T04:42:46;16.30;99.90
11005;DHT22;5555;59.622;16.556;2023-07-13T04:45:13;16.30;99.90
11005;DHT22;5555;59.622;16.556;2023-07-13T04:47:38;16.30;99.90
11005;DHT22;5555;59.622;16.556;2023-07-13T04:50:04;16.40;99.90
11005;DHT22;5555;59.622;16.556;2023-07-13T04:52:30;16.60;99.90
11005;DHT22;5555;59.622;16.556;2023-07-13T04:54:57;16.70;99.90
11005;DHT22;5555;59.622;16.556;2023-07-13T04:57:22;16.60;99.90
11005;DHT22;5555;59.622;16.556;2023-07-13T04:59:48;16.60;99.90
11005;DHT22;5555;59.622;16.556;2023-07-13T05:02:13;16.50;99.90
11005;DHT22;5555;59.622;16.556;2023-07-13T05:04:39;16.70;99.90
11005;DHT22;5555;59.622;16.556;2023-07-13T05:07:05;16.80;99.90
11005;DHT22;5555;59.622;16.556;2023-07-13T05:09:31;16.80;99.90
11005;DHT22;5555;59.622;16.556;2023-07-13T05:11:57;16.80;99.90
11005;DHT22;5555;59.622;16.556;2023-07-13T05:14:23;16.70;99.90
11005;DHT22;5555;59.622;16.556;2023-07-13T05:16:48;16.80;99.90
11005;DHT22;5555;59.622;16.556;2023-07-13T05:19:14;16.60;99.90
11005;DHT22;5555;59.622;16.556;2023-07-13T05:21:39;16.80;99.90
11005;DHT22;5555;59.622;16.556;2023-07-13T05:24:06;16.80;99.90
11005;DHT22;5555;59.622;16.556;2023-07-13T05:26:32;16.70;99.90
11005;DHT22;5555;59.622;16.556;2023-07-13T05:28:57;16.70;99.90
11005;DHT22;5555;59.622;16.556;2023-07-13T05:31:23;16.80;99.90
11005;DHT22;5555;59.622;16.556;2023-07-13T05:33:48;16.90;99.90
11005;DHT22;5555;59.622;16.556;2023-07-13T05:36:14;16.90;99.90
11005;DHT22;5555;59.622;16.556;2023-07-13T05:38:40;17.00;99.90
11005;DHT22;5555;59.622;16.556;2023-07-13T05:41:05;17.00;99.90
11005;DHT22;5555;59.622;16.556;2023-07-13T05:43:31;17.10;99.90
11005;DHT22;5555;59.622;16.556;2023-07-13T05:45:57;17.10;99.90
11005;DHT22;5555;59.622;16.556;2023-07-13T05:48:23;17.20;99.90
11005;DHT22;5555;59.622;16.556;2023-07-13T05:50:49;17.30;99.90
11005;DHT22;5555;59.622;16.556;2023-07-13T05:53:15;17.00;99.90
11005;DHT22;5555;59.622;16.556;2023-07-13T05:55:47;17.10;99.90
11005;DHT22;5555;59.622;16.556;2023-07-13T05:58:13;17.00;99.90
11005;DHT22;5555;59.622;16.556;2023-07-13T06:00:39;17.20;99.90
11005;DHT22;5555;59.622;16.556;2023-07-13T06:03:06;17.30;99.90
11005;DHT22;5555;59.622;16.556;2023-07-13T06:05:32;17.40;99.90
11005;DHT22;5555;59.622;16.556;2023-07-13T06:07:59;17.50;99.90
11005;DHT22;5555;59.622;16.556;2023-07-13T06:10:24;17.60;99.90
11005;DHT22;5555;59.622;16.556;2023-07-13T06:12:50;17.80;99.90
11005;DHT22;5555;59.622;16.556;2023-07-13T06:15:16;17.90;99.90
11005;DHT22;5555;59.622;16.556;2023-07-13T06:17:41;17.90;99.90
11005;DHT22;5555;59.622;16.556;2023-07-13T06:20:08;17.80;99.90
11005;DHT22;5555;59.622;16.556;2023-07-13T06:22:33;17.70;99.90
11005;DHT22;5555;59.622;16.556;2023-07-13T06:24:59;17.60;99.90
11005;DHT22;5555;59.622;16.556;2023-07-13T06:27:24;17.60;99.90
11005;DHT22;5555;59.622;16.556;2023-07-13T06:29:50;17.60;99.90
11005;DHT22;5555;59.622;16.556;2023-07-13T06:32:16;17.70;99.90
11005;DHT22;5555;59.622;16.556;2023-07-13T06:34:41;17.90;99.90
11005;DHT22;5555;59.622;16.556;2023-07-13T06:37:08;17.90;99.90
11005;DHT22;5555;59.622;16.556;2023-07-13T06:39:34;18.00;99.90
11005;DHT22;5555;59.622;16.556;2023-07-13T06:41:59;17.90;99.90
11005;DHT22;5555;59.622;16.556;2023-07-13T06:44:25;17.90;99.90
11005;DHT22;5555;59.622;16.556;2023-07-13T06:46:51;18.20;99.90
11005;DHT22;5555;59.622;16.556;2023-07-13T06:49:16;18.00;99.90
11005;DHT22;5555;59.622;16.556;2023-07-13T06:51:42;18.10;99.90
11005;DHT22;5555;59.622;16.556;2023-07-13T06:54:07;18.10;99.90
11005;DHT22;5555;59.622;16.556;2023-07-13T06:56:33;17.80;99.90
11005;DHT22;5555;59.622;16.556;2023-07-13T06:58:59;17.90;99.90
11005;DHT22;5555;59.622;16.556;2023-07-13T07:01:25;18.00;99.90
11005;DHT22;5555;59.622;16.556;2023-07-13T07:03:51;18.10;99.90
11005;DHT22;5555;59.622;16.556;2023-07-13T07:06:18;18.20;99.90
11005;DHT22;5555;59.622;16.556;2023-07-13T07:08:45;18.20;99.90
11005;DHT22;5555;59.622;16.556;2023-07-13T07:11:19;18.10;99.90
11005;DHT22;5555;59.622;16.556;2023-07-13T07:13:45;17.90;99.90
11005;DHT22;5555;59.622;16.556;2023-07-13T07:16:10;17.70;99.90
11005;DHT22;5555;59.622;16.556;2023-07-13T07:18:36;17.50;99.90
11005;DHT22;5555;59.622;16.556;2023-07-13T07:21:01;17.50;99.90
11005;DHT22;5555;59.622;16.556;2023-07-13T07:23:27;17.70;99.90
11005;DHT22;5555;59.622;16.556;2023-07-13T07:25:53;17.50;99.90
11005;DHT22;5555;59.622;16.556;2023-07-13T07:28:19;17.60;99.90
11005;DHT22;5555;59.622;16.556;2023-07-13T07:30:45;17.60;99.90
11005;DHT22;5555;59.622;16.556;2023-07-13T07:33:11;18.10;99.90
11005;DHT22;5555;59.622;16.556;2023-07-13T07:35:40;18.20;99.90
11005;DHT22;5555;59.622;16.556;2023-07-13T07:38:06;18.60;99.90
11005;DHT22;5555;59.622;16.556;2023-07-13T07:40:31;18.80;99.90
11005;DHT22;5555;59.622;16.556;2023-07-13T07:42:57;18.90;99.90
11005;DHT22;5555;59.622;16.556;2023-07-13T07:45:23;19.10;99.90
11005;DHT22;5555;59.622;16.556;2023-07-13T07:47:49;19.20;99.90
11005;DHT22;5555;59.622;16.556;2023-07-13T07:50:14;19.40;99.90
11005;DHT22;5555;59.622;16.556;2023-07-13T07:52:40;19.50;99.90
11005;DHT22;5555;59.622;16.556;2023-07-13T07:55:07;19.70;99.90
11005;DHT22;5555;59.622;16.556;2023-07-13T07:57:33;19.70;99.90
11005;DHT22;5555;59.622;16.556;2023-07-13T07:59:59;19.50;99.90
11005;DHT22;5555;59.622;16.556;2023-07-13T08:02:25;19.60;99.90
11005;DHT22;5555;59.622;16.556;2023-07-13T08:04:51;19.70;99.90
11005;DHT22;5555;59.622;16.556;2023-07-13T08:07:18;19.90;99.90
11005;DHT22;5555;59.622;16.556;2023-07-13T08:09:43;20.00;99.90
11005;DHT22;5555;59.622;16.556;2023-07-13T08:12:09;20.20;99.90
11005;DHT22;5555;59.622;16.556;2023-07-13T08:14:35;20.20;99.90
11005;DHT22;5555;59.622;16.556;2023-07-13T08:17:01;20.00;99.90
11005;DHT22;5555;59.622;16.556;2023-07-13T08:19:26;20.00;99.90
11005;DHT22;5555;59.622;16.556;2023-07-13T08:21:52;19.80;99.90
11005;DHT22;5555;59.622;16.556;2023-07-13T08:24:17;20.20;99.90
11005;DHT22;5555;59.622;16.556;2023-07-13T08:26:44;19.70;99.90
11005;DHT22;5555;59.622;16.556;2023-07-13T08:29:11;19.40;99.90
11005;DHT22;5555;59.622;16.556;2023-07-13T08:31:37;19.20;99.90
11005;DHT22;5555;59.622;16.556;2023-07-13T08:34:03;19.20;99.90
11005;DHT22;5555;59.622;16.556;2023-07-13T08:36:29;19.50;99.90
11005;DHT22;5555;59.622;16.556;2023-07-13T08:38:54;19.70;99.90
11005;DHT22;5555;59.622;16.556;2023-07-13T08:41:21;20.00;99.90
11005;DHT22;5555;59.622;16.556;2023-07-13T08:43:54;19.90;99.90
11005;DHT22;5555;59.622;16.556;2023-07-13T08:46:32;19.70;99.90
11005;DHT22;5555;59.622;16.556;2023-07-13T08:49:03;19.40;99.90
11005;DHT22;5555;59.622;16.556;2023-07-13T08:51:45;19.40;99.90
11005;DHT22;5555;59.622;16.556;2023-07-13T08:56:49;19.30;99.90
11005;DHT22;5555;59.622;16.556;2023-07-13T08:59:20;19.30;99.90
11005;DHT22;5555;59.622;16.556;2023-07-13T09:07:38;19.70;99.90
11005;DHT22;5555;59.622;16.556;2023-07-13T09:10:15;20.00;99.90
11005;DHT22;5555;59.622;16.556;2023-07-13T09:15:27;20.40;99.90
11005;DHT22;5555;59.622;16.556;2023-07-13T09:17:58;20.80;99.90
11005;DHT22;5555;59.622;16.556;2023-07-13T09:23:01;20.90;99.90
11005;DHT22;5555;59.622;16.556;2023-07-13T09:25:35;20.80;99.90
11005;DHT22;5555;59.622;16.556;2023-07-13T09:28:26;20.90;99.90
11005;DHT22;5555;59.622;16.556;2023-07-13T09:33:31;21.20;99.90
11005;DHT22;5555;59.622;16.556;2023-07-13T09:35:57;21.40;99.90
11005;DHT22;5555;59.622;16.556;2023-07-13T09:38:25;21.20;99.90
11005;DHT22;5555;59.622;16.556;2023-07-13T09:43:25;21.70;99.90
11005;DHT22;5555;59.622;16.556;2023-07-13T09:45:52;21.20;99.90
11005;DHT22;5555;59.622;16.556;2023-07-13T09:48:18;21.30;99.90
11005;DHT22;5555;59.622;16.556;2023-07-13T09:50:44;21.00;99.90
11005;DHT22;5555;59.622;16.556;2023-07-13T09:53:15;21.20;99.90
11005;DHT22;5555;59.622;16.556;2023-07-13T09:55:44;20.90;99.90
11005;DHT22;5555;59.622;16.556;2023-07-13T10:00:53;21.40;99.90
11005;DHT22;5555;59.622;16.556;2023-07-13T10:03:21;21.30;99.90
11005;DHT22;5555;59.622;16.556;2023-07-13T10:05:49;21.40;99.90
11005;DHT22;5555;59.622;16.556;2023-07-13T10:08:23;21.80;99.90
11005;DHT22;5555;59.622;16.556;2023-07-13T10:10:57;22.30;99.90
11005;DHT22;5555;59.622;16.556;2023-07-13T10:13:37;22.70;99.90
11005;DHT22;5555;59.622;16.556;2023-07-13T10:16:04;22.50;99.90
11005;DHT22;5555;59.622;16.556;2023-07-13T10:21:15;22.60;99.90
11005;DHT22;5555;59.622;16.556;2023-07-13T10:23:42;22.30;99.90
11005;DHT22;5555;59.622;16.556;2023-07-13T10:26:14;21.90;99.90
11005;DHT22;5555;59.622;16.556;2023-07-13T10:28:41;22.00;99.90
11005;DHT22;5555;59.622;16.556;2023-07-13T10:31:12;21.90;99.90
11005;DHT22;5555;59.622;16.556;2023-07-13T10:33:39;22.00;99.90
11005;DHT22;5555;59.622;16.556;2023-07-13T10:36:15;22.00;99.90
11005;DHT22;5555;59.622;16.556;2023-07-13T10:38:43;22.10;99.90
11005;DHT22;5555;59.622;16.556;2023-07-13T10:41:20;22.50;99.90
11005;DHT22;5555;59.622;16.556;2023-07-13T10:43:54;22.90;99.90
11005;DHT22;5555;59.622;16.556;2023-07-13T10:46:23;23.50;99.90
11005;DHT22;5555;59.622;16.556;2023-07-13T10:48:52;23.10;99.90
11005;DHT22;5555;59.622;16.556;2023-07-13T10:51:19;22.60;99.90
11005;DHT22;5555;59.622;16.556;2023-07-13T10:56:34;22.20;99.90
11005;DHT22;5555;59.622;16.556;2023-07-13T10:59:25;22.00;99.90
11005;DHT22;5555;59.622;16.556;2023-07-13T11:02:10;22.50;99.90
11005;DHT22;5555;59.622;16.556;2023-07-13T11:04:42;22.60;99.90
11005;DHT22;5555;59.622;16.556;2023-07-13T11:07:27;22.80;99.90
11005;DHT22;5555;59.622;16.556;2023-07-13T11:10:05;22.90;99.90
11005;DHT22;5555;59.622;16.556;2023-07-13T11:12:52;22.70;99.90
11005;DHT22;5555;59.622;16.556;2023-07-13T11:15:45;22.60;99.90
11005;DHT22;5555;59.622;16.556;2023-07-13T11:18:22;22.60;99.90
11005;DHT22;5555;59.622;16.556;2023-07-13T11:20:49;22.90;99.90
11005;DHT22;5555;59.622;16.556;2023-07-13T11:25:44;22.90;99.90
11005;DHT22;5555;59.622;16.556;2023-07-13T11:30:43;22.40;99.90
11005;DHT22;5555;59.622;16.556;2023-07-13T11:33:15;22.60;99.90
11005;DHT22;5555;59.622;16.556;2023-07-13T11:35:49;22.30;99.90
11005;DHT22;5555;59.622;16.556;2023-07-13T11:38:36;22.70;99.90
11005;DHT22;5555;59.622;16.556;2023-07-13T11:41:10;23.10;99.90
11005;DHT22;5555;59.622;16.556;2023-07-13T11:43:38;23.30;99.90
11005;DHT22;5555;59.622;16.556;2023-07-13T11:46:36;23.30;99.90
11005;DHT22;5555;59.622;16.556;2023-07-13T11:49:05;23.80;99.90
11005;DHT22;5555;59.622;16.556;2023-07-13T11:51:35;24.40;99.90
11005;DHT22;5555;59.622;16.556;2023-07-13T11:56:48;24.70;99.90
11005;DHT22;5555;59.622;16.556;2023-07-13T11:59:15;24.20;99.90
11005;DHT22;5555;59.622;16.556;2023-07-13T12:01:51;23.60;99.90
11005;DHT22;5555;59.622;16.556;2023-07-13T12:04:29;24.00;99.90
11005;DHT22;5555;59.622;16.556;2023-07-13T12:07:14;24.10;99.90
11005;DHT22;5555;59.622;16.556;2023-07-13T12:09:40;24.20;99.90
11005;DHT22;5555;59.622;16.556;2023-07-13T12:12:28;23.90;99.90
11005;DHT22;5555;59.622;16.556;2023-07-13T12:14:54;23.30;99.90
11005;DHT22;5555;59.622;16.556;2023-07-13T12:17:22;24.10;99.90
11005;DHT22;5555;59.622;16.556;2023-07-13T12:19:49;24.60;99.90
11005;DHT22;5555;59.622;16.556;2023-07-13T12:22:17;25.40;99.90
11005;DHT22;5555;59.622;16.556;2023-07-13T12:24:44;25.80;99.90
11005;DHT22;5555;59.622;16.556;2023-07-13T12:27:23;25.60;99.90
11005;DHT22;5555;59.622;16.556;2023-07-13T12:30:02;24.70;99.90
11005;DHT22;5555;59.622;16.556;2023-07-13T12:32:28;24.00;99.90
11005;DHT22;5555;59.622;16.556;2023-07-13T12:34:57;23.10;99.90
11005;DHT22;5555;59.622;16.556;2023-07-13T12:37:28;23.10;99.90
11005;DHT22;5555;59.622;16.556;2023-07-13T12:39:56;23.40;99.90
11005;DHT22;5555;59.622;16.556;2023-07-13T12:45:12;25.50;99.90
11005;DHT22;5555;59.622;16.556;2023-07-13T12:47:42;26.50;99.90
11005;DHT22;5555;59.622;16.556;2023-07-13T12:50:38;26.80;99.90
11005;DHT22;5555;59.622;16.556;2023-07-13T12:53:13;26.60;99.90
11005;DHT22;5555;59.622;16.556;2023-07-13T12:56:01;26.40;99.90
11005;DHT22;5555;59.622;16.556;2023-07-13T12:58:41;26.40;99.80
11005;DHT22;5555;59.622;16.556;2023-07-13T13:01:10;26.60;98.90
11005;DHT22;5555;59.622;16.556;2023-07-13T13:03:46;26.90;99.40
11005;DHT22;5555;59.622;16.556;2023-07-13T13:08:41;25.90;98.50
11005;DHT22;5555;59.622;16.556;2023-07-13T13:11:08;26.10;97.70
11005;DHT22;5555;59.622;16.556;2023-07-13T13:13:34;26.10;99.90
11005;DHT22;5555;59.622;16.556;2023-07-13T13:16:17;26.30;98.80
11005;DHT22;5555;59.622;16.556;2023-07-13T13:18:44;26.40;99.00
11005;DHT22;5555;59.622;16.556;2023-07-13T13:21:10;26.90;98.80
11005;DHT22;5555;59.622;16.556;2023-07-13T13:23:36;26.00;98.60
11005;DHT22;5555;59.622;16.556;2023-07-13T13:26:02;26.00;99.20
11005;DHT22;5555;59.622;16.556;2023-07-13T13:28:29;26.00;98.90
11005;DHT22;5555;59.622;16.556;2023-07-13T13:30:55;25.40;99.50
11005;DHT22;5555;59.622;16.556;2023-07-13T13:33:21;24.60;99.90
11005;DHT22;5555;59.622;16.556;2023-07-13T13:35:47;24.20;99.90
11005;DHT22;5555;59.622;16.556;2023-07-13T13:38:17;24.60;99.90
11005;DHT22;5555;59.622;16.556;2023-07-13T13:40:45;25.10;99.90
11005;DHT22;5555;59.622;16.556;2023-07-13T13:43:25;26.00;99.90
11005;DHT22;5555;59.622;16.556;2023-07-13T13:45:58;27.20;99.00
11005;DHT22;5555;59.622;16.556;2023-07-13T13:48:33;28.20;98.70
11005;DHT22;5555;59.622;16.556;2023-07-13T13:51:01;27.80;97.90
11005;DHT22;5555;59.622;16.556;2023-07-13T13:53:29;27.90;98.30
11005;DHT22;5555;59.622;16.556;2023-07-13T13:55:55;28.20;97.80
11005;DHT22;5555;59.622;16.556;2023-07-13T13:58:20;28.40;96.70
11005;DHT22;5555;59.622;16.556;2023-07-13T14:00:47;28.60;96.20
11005;DHT22;5555;59.622;16.556;2023-07-13T14:03:23;28.20;94.20
11005;DHT22;5555;59.622;16.556;2023-07-13T14:05:49;27.60;95.40
11005;DHT22;5555;59.622;16.556;2023-07-13T14:08:18;28.20;95.10
11005;DHT22;5555;59.622;16.556;2023-07-13T14:10:49;28.60;95.10
11005;DHT22;5555;59.622;16.556;2023-07-13T14:13:18;28.40;94.90
11005;DHT22;5555;59.622;16.556;2023-07-13T14:15:45;28.90;94.60
11005;DHT22;5555;59.622;16.556;2023-07-13T14:18:11;28.70;94.40
11005;DHT22;5555;59.622;16.556;2023-07-13T14:20:37;28.00;94.40
11005;DHT22;5555;59.622;16.556;2023-07-13T14:23:03;27.90;94.60
11005;DHT22;5555;59.622;16.556;2023-07-13T14:25:29;28.70;94.70
11005;DHT22;5555;59.622;16.556;2023-07-13T14:27:58;28.90;94.10
11005;DHT22;5555;59.622;16.556;2023-07-13T14:30:26;29.00;93.60
11005;DHT22;5555;59.622;16.556;2023-07-13T14:32:52;28.80;93.50
11005;DHT22;5555;59.622;16.556;2023-07-13T14:35:21;28.80;93.40
11005;DHT22;5555;59.622;16.556;2023-07-13T14:37:49;29.20;93.50
11005;DHT22;5555;59.622;16.556;2023-07-13T14:40:17;28.40;93.30
11005;DHT22;5555;59.622;16.556;2023-07-13T14:42:43;28.90;92.30
11005;DHT22;5555;59.622;16.556;2023-07-13T14:45:14;29.30;92.60
11005;DHT22;5555;59.622;16.556;2023-07-13T14:47:40;29.20;92.20
11005;DHT22;5555;59.622;16.556;2023-07-13T14:50:13;29.80;91.60
11005;DHT22;5555;59.622;16.556;2023-07-13T14:52:39;29.70;91.80
11005;DHT22;5555;59.622;16.556;2023-07-13T14:55:14;29.40;92.30
11005;DHT22;5555;59.622;16.556;2023-07-13T14:57:40;29.00;90.90
11005;DHT22;5555;59.622;16.556;2023-07-13T15:00:17;29.50;90.80
11005;DHT22;5555;59.622;16.556;2023-07-13T15:02:49;28.60;91.60
11005;DHT22;5555;59.622;16.556;2023-07-13T15:05:27;28.00;91.80
11005;DHT22;5555;59.622;16.556;2023-07-13T15:08:01;28.10;92.50
11005;DHT22;5555;59.622;16.556;2023-07-13T15:10:30;26.70;93.60
11005;DHT22;5555;59.622;16.556;2023-07-13T15:13:20;27.90;92.90
11005;DHT22;5555;59.622;16.556;2023-07-13T15:15:53;29.00;92.40
11005;DHT22;5555;59.622;16.556;2023-07-13T15:18:21;27.40;93.20
11005;DHT22;5555;59.622;16.556;2023-07-13T15:20:48;27.20;92.50
11005;DHT22;5555;59.622;16.556;2023-07-13T15:23:16;27.60;92.60
11005;DHT22;5555;59.622;16.556;2023-07-13T15:25:43;27.60;92.40
11005;DHT22;5555;59.622;16.556;2023-07-13T15:28:09;27.70;92.90
11005;DHT22;5555;59.622;16.556;2023-07-13T15:30:47;28.70;92.70
11005;DHT22;5555;59.622;16.556;2023-07-13T15:33:23;29.00;92.20
11005;DHT22;5555;59.622;16.556;2023-07-13T15:35:49;28.50;92.10
11005;DHT22;5555;59.622;16.556;2023-07-13T15:38:21;28.90;92.20
11005;DHT22;5555;59.622;16.556;2023-07-13T15:40:51;29.00;92.30
11005;DHT22;5555;59.622;16.556;2023-07-13T15:43:17;29.50;91.50
11005;DHT22;5555;59.622;16.556;2023-07-13T15:45:44;29.10;91.60
11005;DHT22;5555;59.622;16.556;2023-07-13T15:48:19;28.40;92.00
11005;DHT22;5555;59.622;16.556;2023-07-13T15:50:48;29.40;91.00
11005;DHT22;5555;59.622;16.556;2023-07-13T15:53:19;29.30;91.00
11005;DHT22;5555;59.622;16.556;2023-07-13T15:55:45;29.00;91.70
11005;DHT22;5555;59.622;16.556;2023-07-13T15:58:12;28.80;91.90
11005;DHT22;5555;59.622;16.556;2023-07-13T16:00:40;28.80;91.70
11005;DHT22;5555;59.622;16.556;2023-07-13T16:03:05;28.00;91.20
11005;DHT22;5555;59.622;16.556;2023-07-13T16:05:31;27.70;90.30
11005;DHT22;5555;59.622;16.556;2023-07-13T16:07:58;27.10;90.50
11005;DHT22;5555;59.622;16.556;2023-07-13T16:10:41;26.00;90.70
11005;DHT22;5555;59.622;16.556;2023-07-13T16:13:16;26.10;91.50
11005;DHT22;5555;59.622;16.556;2023-07-13T16:15:44;27.60;89.80
11005;DHT22;5555;59.622;16.556;2023-07-13T16:18:14;29.30;87.30
11005;DHT22;5555;59.622;16.556;2023-07-13T16:20:47;30.30;84.90